Seascale, United Kingdom
Current Conditions -  °F | °C
As of 10:20 AM on Monday 26 Jan 2015 (Local Time) from EGNH Reporting Station
Few Clouds Few Clouds  
Wind Chill:   Ceiling: Unl
Heat Index:   Visibility: 6mi
Dew Point:   Wind: 21mph
Humidity: 81%   Direction: 280°W
Pressure: 30.18"   Gusts: NA
Location:  54.4°N, 3.48°W
Report Text: EGNH 261020Z 28018KT 9999 FEW045 07/04 Q1022
Loading
Personal Weather Stations






























Interactive Weather Map New forecast layout! Learn more

10-Day Weather Forecast

Advertisements
Track Severe Weather on mobile